sensor_id;sensor_type;location;lat;lon;timestamp;P1;durP1;ratioP1;P2;durP2;ratioP2
10335;SDS011;5213;53.548;9.930;2023-04-12T00:00:30;15.32;;;8.40;;
10335;SDS011;5213;53.548;9.930;2023-04-12T00:02:56;13.27;;;7.90;;
10335;SDS011;5213;53.548;9.930;2023-04-12T00:05:23;14.90;;;8.05;;
10335;SDS011;5213;53.548;9.930;2023-04-12T00:07:51;10.57;;;7.80;;
10335;SDS011;5213;53.548;9.930;2023-04-12T00:10:18;12.77;;;7.75;;
10335;SDS011;5213;53.548;9.930;2023-04-12T00:12:45;11.13;;;7.20;;
10335;SDS011;5213;53.548;9.930;2023-04-12T00:15:11;10.80;;;7.43;;
10335;SDS011;5213;53.548;9.930;2023-04-12T00:17:37;12.07;;;7.45;;
10335;SDS011;5213;53.548;9.930;2023-04-12T00:20:04;10.90;;;6.97;;
10335;SDS011;5213;53.548;9.930;2023-04-12T00:22:37;12.82;;;7.25;;
10335;SDS011;5213;53.548;9.930;2023-04-12T00:25:03;11.90;;;7.15;;
10335;SDS011;5213;53.548;9.930;2023-04-12T00:27:29;12.70;;;7.50;;
10335;SDS011;5213;53.548;9.930;2023-04-12T00:29:55;11.00;;;7.28;;
10335;SDS011;5213;53.548;9.930;2023-04-12T00:32:22;12.32;;;7.47;;
10335;SDS011;5213;53.548;9.930;2023-04-12T00:34:48;11.40;;;7.45;;
10335;SDS011;5213;53.548;9.930;2023-04-12T00:37:14;9.05;;;6.78;;
10335;SDS011;5213;53.548;9.930;2023-04-12T00:39:40;11.23;;;7.05;;
10335;SDS011;5213;53.548;9.930;2023-04-12T00:42:06;11.48;;;6.93;;
10335;SDS011;5213;53.548;9.930;2023-04-12T00:44:32;11.50;;;7.40;;
10335;SDS011;5213;53.548;9.930;2023-04-12T00:46:59;10.48;;;7.43;;
10335;SDS011;5213;53.548;9.930;2023-04-12T00:49:29;8.27;;;7.22;;
10335;SDS011;5213;53.548;9.930;2023-04-12T00:51:59;10.65;;;7.38;;
10335;SDS011;5213;53.548;9.930;2023-04-12T00:54:34;10.55;;;7.25;;
10335;SDS011;5213;53.548;9.930;2023-04-12T00:57:00;11.10;;;7.20;;
10335;SDS011;5213;53.548;9.930;2023-04-12T00:59:26;12.45;;;7.15;;
10335;SDS011;5213;53.548;9.930;2023-04-12T01:01:53;11.20;;;6.22;;
10335;SDS011;5213;53.548;9.930;2023-04-12T01:04:20;9.65;;;7.05;;
10335;SDS011;5213;53.548;9.930;2023-04-12T01:09:41;7.95;;;5.95;;
10335;SDS011;5213;53.548;9.930;2023-04-12T01:12:19;12.27;;;6.25;;
10335;SDS011;5213;53.548;9.930;2023-04-12T01:17:13;6.93;;;4.90;;
10335;SDS011;5213;53.548;9.930;2023-04-12T01:22:36;8.75;;;5.15;;
10335;SDS011;5213;53.548;9.930;2023-04-12T01:27:41;6.15;;;5.32;;
10335;SDS011;5213;53.548;9.930;2023-04-12T01:30:07;6.55;;;4.88;;
10335;SDS011;5213;53.548;9.930;2023-04-12T01:32:37;9.85;;;4.95;;
10335;SDS011;5213;53.548;9.930;2023-04-12T01:35:04;6.15;;;4.45;;
10335;SDS011;5213;53.548;9.930;2023-04-12T01:37:33;6.82;;;4.28;;
10335;SDS011;5213;53.548;9.930;2023-04-12T01:39:59;5.47;;;4.07;;
10335;SDS011;5213;53.548;9.930;2023-04-12T01:42:26;8.15;;;4.28;;
10335;SDS011;5213;53.548;9.930;2023-04-12T01:44:52;5.18;;;4.28;;
10335;SDS011;5213;53.548;9.930;2023-04-12T01:47:18;5.68;;;3.58;;
10335;SDS011;5213;53.548;9.930;2023-04-12T01:49:54;8.18;;;4.00;;
10335;SDS011;5213;53.548;9.930;2023-04-12T01:52:24;4.57;;;3.40;;
10335;SDS011;5213;53.548;9.930;2023-04-12T01:54:53;6.05;;;3.80;;
10335;SDS011;5213;53.548;9.930;2023-04-12T01:57:19;5.63;;;3.92;;
10335;SDS011;5213;53.548;9.930;2023-04-12T01:59:46;8.88;;;4.10;;
10335;SDS011;5213;53.548;9.930;2023-04-12T02:02:13;5.18;;;3.88;;
10335;SDS011;5213;53.548;9.930;2023-04-12T02:04:40;4.68;;;3.90;;
10335;SDS011;5213;53.548;9.930;2023-04-12T02:07:06;4.72;;;4.18;;
10335;SDS011;5213;53.548;9.930;2023-04-12T02:09:36;7.88;;;4.05;;
10335;SDS011;5213;53.548;9.930;2023-04-12T02:12:02;6.53;;;3.80;;
10335;SDS011;5213;53.548;9.930;2023-04-12T02:14:28;8.13;;;4.38;;
10335;SDS011;5213;53.548;9.930;2023-04-12T02:16:55;6.35;;;3.97;;
10335;SDS011;5213;53.548;9.930;2023-04-12T02:19:22;8.77;;;4.30;;
10335;SDS011;5213;53.548;9.930;2023-04-12T02:21:48;7.22;;;4.40;;
10335;SDS011;5213;53.548;9.930;2023-04-12T02:24:15;6.47;;;4.20;;
10335;SDS011;5213;53.548;9.930;2023-04-12T02:26:41;5.10;;;4.20;;
10335;SDS011;5213;53.548;9.930;2023-04-12T02:29:07;4.63;;;4.10;;
10335;SDS011;5213;53.548;9.930;2023-04-12T02:31:34;6.45;;;4.25;;
10335;SDS011;5213;53.548;9.930;2023-04-12T02:34:00;6.28;;;4.38;;
10335;SDS011;5213;53.548;9.930;2023-04-12T02:36:27;5.13;;;3.90;;
10335;SDS011;5213;53.548;9.930;2023-04-12T02:38:53;9.00;;;4.22;;
10335;SDS011;5213;53.548;9.930;2023-04-12T02:41:20;5.93;;;4.15;;
10335;SDS011;5213;53.548;9.930;2023-04-12T02:43:46;8.35;;;4.15;;
10335;SDS011;5213;53.548;9.930;2023-04-12T02:46:22;7.15;;;4.18;;
10335;SDS011;5213;53.548;9.930;2023-04-12T02:48:49;6.82;;;3.92;;
10335;SDS011;5213;53.548;9.930;2023-04-12T02:51:15;8.50;;;4.45;;
10335;SDS011;5213;53.548;9.930;2023-04-12T02:53:41;8.35;;;3.97;;
10335;SDS011;5213;53.548;9.930;2023-04-12T02:56:07;6.55;;;4.30;;
10335;SDS011;5213;53.548;9.930;2023-04-12T02:58:34;5.28;;;3.53;;
10335;SDS011;5213;53.548;9.930;2023-04-12T03:01:00;5.18;;;3.72;;
10335;SDS011;5213;53.548;9.930;2023-04-12T03:03:26;5.72;;;3.60;;
10335;SDS011;5213;53.548;9.930;2023-04-12T03:05:55;4.90;;;4.00;;
10335;SDS011;5213;53.548;9.930;2023-04-12T03:08:22;6.85;;;4.00;;
10335;SDS011;5213;53.548;9.930;2023-04-12T03:10:48;5.93;;;4.18;;
10335;SDS011;5213;53.548;9.930;2023-04-12T03:13:14;6.05;;;3.78;;
10335;SDS011;5213;53.548;9.930;2023-04-12T03:15:40;7.63;;;4.00;;
10335;SDS011;5213;53.548;9.930;2023-04-12T03:18:07;7.10;;;3.83;;
10335;SDS011;5213;53.548;9.930;2023-04-12T03:20:34;6.68;;;3.70;;
10335;SDS011;5213;53.548;9.930;2023-04-12T03:23:00;6.95;;;3.95;;
10335;SDS011;5213;53.548;9.930;2023-04-12T03:25:26;5.85;;;4.28;;
10335;SDS011;5213;53.548;9.930;2023-04-12T03:27:52;6.72;;;4.03;;
10335;SDS011;5213;53.548;9.930;2023-04-12T03:30:18;6.00;;;3.95;;
10335;SDS011;5213;53.548;9.930;2023-04-12T03:32:44;7.88;;;4.05;;
10335;SDS011;5213;53.548;9.930;2023-04-12T03:35:10;11.85;;;4.03;;
10335;SDS011;5213;53.548;9.930;2023-04-12T03:37:41;6.53;;;4.05;;
10335;SDS011;5213;53.548;9.930;2023-04-12T03:40:07;5.65;;;4.03;;
10335;SDS011;5213;53.548;9.930;2023-04-12T03:42:34;4.00;;;3.70;;
10335;SDS011;5213;53.548;9.930;2023-04-12T03:45:01;5.82;;;3.80;;
10335;SDS011;5213;53.548;9.930;2023-04-12T03:47:27;6.10;;;3.88;;
10335;SDS011;5213;53.548;9.930;2023-04-12T03:49:54;7.88;;;3.70;;
10335;SDS011;5213;53.548;9.930;2023-04-12T03:52:20;4.68;;;3.88;;
10335;SDS011;5213;53.548;9.930;2023-04-12T03:54:46;5.15;;;3.88;;
10335;SDS011;5213;53.548;9.930;2023-04-12T03:57:12;7.88;;;3.97;;
10335;SDS011;5213;53.548;9.930;2023-04-12T03:59:38;6.18;;;3.75;;
10335;SDS011;5213;53.548;9.930;2023-04-12T04:02:04;5.40;;;3.92;;
10335;SDS011;5213;53.548;9.930;2023-04-12T04:04:31;4.30;;;3.88;;
10335;SDS011;5213;53.548;9.930;2023-04-12T04:06:57;4.45;;;3.83;;
10335;SDS011;5213;53.548;9.930;2023-04-12T04:09:23;4.40;;;4.00;;
10335;SDS011;5213;53.548;9.930;2023-04-12T04:11:49;5.70;;;3.72;;
10335;SDS011;5213;53.548;9.930;2023-04-12T04:14:15;5.78;;;3.47;;
10335;SDS011;5213;53.548;9.930;2023-04-12T04:16:41;4.60;;;3.60;;
10335;SDS011;5213;53.548;9.930;2023-04-12T04:19:07;7.90;;;3.95;;
10335;SDS011;5213;53.548;9.930;2023-04-12T04:21:33;6.57;;;3.15;;
10335;SDS011;5213;53.548;9.930;2023-04-12T04:24:12;5.43;;;3.97;;
10335;SDS011;5213;53.548;9.930;2023-04-12T04:26:49;5.65;;;3.30;;
10335;SDS011;5213;53.548;9.930;2023-04-12T04:29:18;6.95;;;3.55;;
10335;SDS011;5213;53.548;9.930;2023-04-12T04:31:44;5.85;;;3.35;;
10335;SDS011;5213;53.548;9.930;2023-04-12T04:34:10;5.47;;;3.20;;
10335;SDS011;5213;53.548;9.930;2023-04-12T04:36:37;6.40;;;3.53;;
10335;SDS011;5213;53.548;9.930;2023-04-12T04:39:03;4.20;;;3.05;;
10335;SDS011;5213;53.548;9.930;2023-04-12T04:41:30;4.80;;;2.83;;
10335;SDS011;5213;53.548;9.930;2023-04-12T04:43:59;5.82;;;3.13;;
10335;SDS011;5213;53.548;9.930;2023-04-12T04:46:25;3.53;;;2.60;;
10335;SDS011;5213;53.548;9.930;2023-04-12T04:48:54;4.40;;;3.03;;
10335;SDS011;5213;53.548;9.930;2023-04-12T04:51:20;5.75;;;2.88;;
10335;SDS011;5213;53.548;9.930;2023-04-12T04:53:46;5.15;;;2.95;;
10335;SDS011;5213;53.548;9.930;2023-04-12T04:56:12;4.72;;;3.22;;
10335;SDS011;5213;53.548;9.930;2023-04-12T04:58:38;4.18;;;3.00;;
10335;SDS011;5213;53.548;9.930;2023-04-12T05:01:04;2.85;;;2.65;;
10335;SDS011;5213;53.548;9.930;2023-04-12T05:03:31;5.03;;;2.97;;
10335;SDS011;5213;53.548;9.930;2023-04-12T05:05:58;4.97;;;2.60;;
10335;SDS011;5213;53.548;9.930;2023-04-12T05:08:26;6.43;;;3.05;;
10335;SDS011;5213;53.548;9.930;2023-04-12T05:10:53;5.68;;;3.13;;
10335;SDS011;5213;53.548;9.930;2023-04-12T05:13:19;5.78;;;3.08;;
10335;SDS011;5213;53.548;9.930;2023-04-12T05:15:46;5.75;;;3.25;;
10335;SDS011;5213;53.548;9.930;2023-04-12T05:18:12;4.95;;;3.08;;
10335;SDS011;5213;53.548;9.930;2023-04-12T05:20:39;4.30;;;2.90;;
10335;SDS011;5213;53.548;9.930;2023-04-12T05:23:05;6.05;;;3.28;;
10335;SDS011;5213;53.548;9.930;2023-04-12T05:25:31;3.65;;;2.80;;
10335;SDS011;5213;53.548;9.930;2023-04-12T05:27:57;5.78;;;3.03;;
10335;SDS011;5213;53.548;9.930;2023-04-12T05:30:23;5.10;;;2.75;;
10335;SDS011;5213;53.548;9.930;2023-04-12T05:32:49;4.13;;;3.03;;
10335;SDS011;5213;53.548;9.930;2023-04-12T05:35:15;3.83;;;2.92;;
10335;SDS011;5213;53.548;9.930;2023-04-12T05:37:41;3.72;;;2.97;;
10335;SDS011;5213;53.548;9.930;2023-04-12T05:40:07;5.88;;;2.78;;
10335;SDS011;5213;53.548;9.930;2023-04-12T05:42:36;4.05;;;3.00;;
10335;SDS011;5213;53.548;9.930;2023-04-12T05:45:03;6.47;;;2.92;;
10335;SDS011;5213;53.548;9.930;2023-04-12T05:47:30;6.38;;;2.95;;
10335;SDS011;5213;53.548;9.930;2023-04-12T05:49:56;3.88;;;2.83;;
10335;SDS011;5213;53.548;9.930;2023-04-12T05:52:22;7.00;;;2.80;;
10335;SDS011;5213;53.548;9.930;2023-04-12T05:54:48;5.00;;;2.80;;
10335;SDS011;5213;53.548;9.930;2023-04-12T05:57:15;2.95;;;2.60;;
10335;SDS011;5213;53.548;9.930;2023-04-12T05:59:41;2.72;;;2.53;;
10335;SDS011;5213;53.548;9.930;2023-04-12T06:02:08;4.05;;;3.10;;
10335;SDS011;5213;53.548;9.930;2023-04-12T06:04:34;5.00;;;2.80;;
10335;SDS011;5213;53.548;9.930;2023-04-12T06:07:02;3.65;;;2.67;;
10335;SDS011;5213;53.548;9.930;2023-04-12T06:09:29;5.15;;;2.50;;
10335;SDS011;5213;53.548;9.930;2023-04-12T06:11:55;3.30;;;2.40;;
10335;SDS011;5213;53.548;9.930;2023-04-12T06:14:22;4.55;;;2.60;;
10335;SDS011;5213;53.548;9.930;2023-04-12T06:16:48;6.20;;;2.65;;
10335;SDS011;5213;53.548;9.930;2023-04-12T06:19:14;3.05;;;2.67;;
10335;SDS011;5213;53.548;9.930;2023-04-12T06:21:40;3.05;;;2.75;;
10335;SDS011;5213;53.548;9.930;2023-04-12T06:24:06;3.72;;;2.50;;
10335;SDS011;5213;53.548;9.930;2023-04-12T06:26:32;4.28;;;2.70;;
10335;SDS011;5213;53.548;9.930;2023-04-12T06:28:58;5.75;;;2.72;;
10335;SDS011;5213;53.548;9.930;2023-04-12T06:31:24;3.55;;;2.60;;
10335;SDS011;5213;53.548;9.930;2023-04-12T06:33:51;2.90;;;2.58;;
10335;SDS011;5213;53.548;9.930;2023-04-12T06:36:17;4.65;;;2.63;;
10335;SDS011;5213;53.548;9.930;2023-04-12T06:38:43;3.85;;;2.40;;
10335;SDS011;5213;53.548;9.930;2023-04-12T06:41:09;2.88;;;2.60;;
10335;SDS011;5213;53.548;9.930;2023-04-12T06:43:35;5.40;;;2.60;;
10335;SDS011;5213;53.548;9.930;2023-04-12T06:46:01;2.75;;;2.13;;
10335;SDS011;5213;53.548;9.930;2023-04-12T06:48:28;3.45;;;2.45;;
10335;SDS011;5213;53.548;9.930;2023-04-12T06:50:54;3.72;;;2.20;;
10335;SDS011;5213;53.548;9.930;2023-04-12T06:53:20;3.70;;;2.40;;
10335;SDS011;5213;53.548;9.930;2023-04-12T06:55:47;3.13;;;2.55;;
10335;SDS011;5213;53.548;9.930;2023-04-12T06:58:13;2.92;;;2.58;;
10335;SDS011;5213;53.548;9.930;2023-04-12T07:00:39;4.97;;;2.60;;
10335;SDS011;5213;53.548;9.930;2023-04-12T07:03:05;2.78;;;2.58;;
10335;SDS011;5213;53.548;9.930;2023-04-12T07:05:31;3.20;;;2.80;;
10335;SDS011;5213;53.548;9.930;2023-04-12T07:07:57;6.20;;;3.33;;
10335;SDS011;5213;53.548;9.930;2023-04-12T07:10:23;5.43;;;3.30;;
10335;SDS011;5213;53.548;9.930;2023-04-12T07:12:49;4.43;;;3.20;;
10335;SDS011;5213;53.548;9.930;2023-04-12T07:15:16;6.20;;;3.42;;
10335;SDS011;5213;53.548;9.930;2023-04-12T07:17:42;3.88;;;3.17;;
10335;SDS011;5213;53.548;9.930;2023-04-12T07:20:08;4.88;;;3.50;;
10335;SDS011;5213;53.548;9.930;2023-04-12T07:22:34;3.13;;;2.78;;
10335;SDS011;5213;53.548;9.930;2023-04-12T07:25:00;3.25;;;2.70;;
10335;SDS011;5213;53.548;9.930;2023-04-12T07:27:26;5.53;;;3.15;;
10335;SDS011;5213;53.548;9.930;2023-04-12T07:29:52;4.38;;;3.50;;
10335;SDS011;5213;53.548;9.930;2023-04-12T07:32:22;4.65;;;3.05;;
10335;SDS011;5213;53.548;9.930;2023-04-12T07:34:48;4.45;;;2.85;;
10335;SDS011;5213;53.548;9.930;2023-04-12T07:37:14;3.05;;;2.63;;
10335;SDS011;5213;53.548;9.930;2023-04-12T07:39:41;4.93;;;3.20;;
10335;SDS011;5213;53.548;9.930;2023-04-12T07:42:07;3.83;;;2.63;;
10335;SDS011;5213;53.548;9.930;2023-04-12T07:44:34;5.55;;;2.85;;
10335;SDS011;5213;53.548;9.930;2023-04-12T07:47:00;6.55;;;3.28;;
10335;SDS011;5213;53.548;9.930;2023-04-12T07:49:26;5.47;;;2.90;;
10335;SDS011;5213;53.548;9.930;2023-04-12T07:51:52;6.15;;;3.20;;
10335;SDS011;5213;53.548;9.930;2023-04-12T07:54:19;6.45;;;4.00;;
10335;SDS011;5213;53.548;9.930;2023-04-12T07:56:58;6.00;;;2.85;;
10335;SDS011;5213;53.548;9.930;2023-04-12T07:59:25;3.33;;;2.50;;
10335;SDS011;5213;53.548;9.930;2023-04-12T08:01:51;5.28;;;3.00;;
10335;SDS011;5213;53.548;9.930;2023-04-12T08:04:17;5.43;;;3.30;;
10335;SDS011;5213;53.548;9.930;2023-04-12T08:06:43;5.28;;;3.03;;
10335;SDS011;5213;53.548;9.930;2023-04-12T08:09:09;4.20;;;2.70;;
10335;SDS011;5213;53.548;9.930;2023-04-12T08:11:35;5.05;;;2.75;;
10335;SDS011;5213;53.548;9.930;2023-04-12T08:14:01;6.93;;;2.70;;
10335;SDS011;5213;53.548;9.930;2023-04-12T08:16:27;4.50;;;2.60;;
10335;SDS011;5213;53.548;9.930;2023-04-12T08:18:53;4.70;;;2.40;;
10335;SDS011;5213;53.548;9.930;2023-04-12T08:21:19;3.80;;;2.60;;
10335;SDS011;5213;53.548;9.930;2023-04-12T08:23:46;5.53;;;3.00;;
10335;SDS011;5213;53.548;9.930;2023-04-12T08:26:14;2.97;;;2.60;;
10335;SDS011;5213;53.548;9.930;2023-04-12T08:28:40;4.65;;;2.88;;
10335;SDS011;5213;53.548;9.930;2023-04-12T08:31:07;4.07;;;2.53;;
10335;SDS011;5213;53.548;9.930;2023-04-12T08:33:33;6.05;;;2.70;;
10335;SDS011;5213;53.548;9.930;2023-04-12T08:35:59;5.75;;;2.80;;
10335;SDS011;5213;53.548;9.930;2023-04-12T08:38:25;3.75;;;2.63;;
10335;SDS011;5213;53.548;9.930;2023-04-12T08:40:51;3.03;;;2.15;;
10335;SDS011;5213;53.548;9.930;2023-04-12T08:43:18;5.05;;;2.83;;
10335;SDS011;5213;53.548;9.930;2023-04-12T08:45:44;4.72;;;2.60;;
10335;SDS011;5213;53.548;9.930;2023-04-12T08:48:11;4.05;;;2.92;;
10335;SDS011;5213;53.548;9.930;2023-04-12T08:50:37;3.85;;;2.60;;
10335;SDS011;5213;53.548;9.930;2023-04-12T08:53:03;3.17;;;2.67;;
10335;SDS011;5213;53.548;9.930;2023-04-12T08:55:29;3.78;;;2.88;;
10335;SDS011;5213;53.548;9.930;2023-04-12T08:57:55;3.38;;;2.60;;
10335;SDS011;5213;53.548;9.930;2023-04-12T09:00:29;3.05;;;2.53;;
10335;SDS011;5213;53.548;9.930;2023-04-12T09:02:56;4.00;;;2.65;;
10335;SDS011;5213;53.548;9.930;2023-04-12T09:05:27;3.60;;;2.78;;
10335;SDS011;5213;53.548;9.930;2023-04-12T09:07:53;3.53;;;2.50;;
10335;SDS011;5213;53.548;9.930;2023-04-12T09:10:30;4.13;;;2.80;;
10335;SDS011;5213;53.548;9.930;2023-04-12T09:12:57;3.45;;;2.60;;
10335;SDS011;5213;53.548;9.930;2023-04-12T09:15:23;4.18;;;2.80;;
10335;SDS011;5213;53.548;9.930;2023-04-12T09:17:59;3.60;;;2.60;;
10335;SDS011;5213;53.548;9.930;2023-04-12T09:20:27;4.55;;;2.75;;
10335;SDS011;5213;53.548;9.930;2023-04-12T09:22:53;4.68;;;2.72;;
10335;SDS011;5213;53.548;9.930;2023-04-12T09:25:34;4.80;;;3.10;;
10335;SDS011;5213;53.548;9.930;2023-04-12T09:28:00;4.28;;;2.90;;
10335;SDS011;5213;53.548;9.930;2023-04-12T09:30:26;4.57;;;2.80;;
10335;SDS011;5213;53.548;9.930;2023-04-12T09:32:52;3.78;;;2.88;;
10335;SDS011;5213;53.548;9.930;2023-04-12T09:35:32;3.22;;;2.85;;
10335;SDS011;5213;53.548;9.930;2023-04-12T09:38:05;5.30;;;3.10;;
10335;SDS011;5213;53.548;9.930;2023-04-12T09:40:32;4.85;;;2.95;;
10335;SDS011;5213;53.548;9.930;2023-04-12T09:43:00;3.75;;;2.70;;
10335;SDS011;5213;53.548;9.930;2023-04-12T09:45:26;5.75;;;3.17;;
10335;SDS011;5213;53.548;9.930;2023-04-12T09:47:54;4.43;;;2.80;;
10335;SDS011;5213;53.548;9.930;2023-04-12T09:50:21;7.82;;;2.90;;
10335;SDS011;5213;53.548;9.930;2023-04-12T09:52:47;6.05;;;2.83;;
10335;SDS011;5213;53.548;9.930;2023-04-12T09:55:13;6.82;;;3.45;;
10335;SDS011;5213;53.548;9.930;2023-04-12T09:57:41;6.22;;;2.90;;
10335;SDS011;5213;53.548;9.930;2023-04-12T10:00:07;4.82;;;2.90;;
10335;SDS011;5213;53.548;9.930;2023-04-12T10:02:39;3.25;;;2.63;;
10335;SDS011;5213;53.548;9.930;2023-04-12T10:05:06;4.20;;;2.60;;
10335;SDS011;5213;53.548;9.930;2023-04-12T10:07:40;4.82;;;2.75;;
10335;SDS011;5213;53.548;9.930;2023-04-12T10:10:06;5.90;;;2.60;;
10335;SDS011;5213;53.548;9.930;2023-04-12T10:12:34;4.47;;;2.40;;
10335;SDS011;5213;53.548;9.930;2023-04-12T10:15:04;6.75;;;2.60;;
10335;SDS011;5213;53.548;9.930;2023-04-12T10:17:31;3.97;;;2.50;;
10335;SDS011;5213;53.548;9.930;2023-04-12T10:20:00;6.97;;;2.65;;
10335;SDS011;5213;53.548;9.930;2023-04-12T10:22:26;3.80;;;2.60;;
10335;SDS011;5213;53.548;9.930;2023-04-12T10:24:52;2.95;;;2.40;;
10335;SDS011;5213;53.548;9.930;2023-04-12T10:27:25;4.20;;;2.72;;
10335;SDS011;5213;53.548;9.930;2023-04-12T10:29:52;5.20;;;2.70;;
10335;SDS011;5213;53.548;9.930;2023-04-12T10:34:59;3.70;;;2.60;;
10335;SDS011;5213;53.548;9.930;2023-04-12T10:40:15;5.10;;;2.90;;
10335;SDS011;5213;53.548;9.930;2023-04-12T10:42:43;3.30;;;2.50;;
10335;SDS011;5213;53.548;9.930;2023-04-12T10:47:57;4.10;;;2.38;;
10335;SDS011;5213;53.548;9.930;2023-04-12T10:50:29;3.47;;;2.50;;
10335;SDS011;5213;53.548;9.930;2023-04-12T10:55:37;5.60;;;2.70;;
10335;SDS011;5213;53.548;9.930;2023-04-12T10:58:03;4.50;;;2.33;;
10335;SDS011;5213;53.548;9.930;2023-04-12T11:01:30;3.20;;;2.25;;
10335;SDS011;5213;53.548;9.930;2023-04-12T11:03:26;2.92;;;2.58;;
10335;SDS011;5213;53.548;9.930;2023-04-12T11:06:02;3.20;;;2.45;;
10335;SDS011;5213;53.548;9.930;2023-04-12T11:08:29;6.10;;;2.85;;
10335;SDS011;5213;53.548;9.930;2023-04-12T11:11:02;3.63;;;2.55;;
10335;SDS011;5213;53.548;9.930;2023-04-12T11:13:33;3.05;;;2.47;;
10335;SDS011;5213;53.548;9.930;2023-04-12T11:16:00;2.72;;;2.33;;
10335;SDS011;5213;53.548;9.930;2023-04-12T11:18:26;2.95;;;2.65;;
10335;SDS011;5213;53.548;9.930;2023-04-12T11:20:52;5.18;;;2.55;;
10335;SDS011;5213;53.548;9.930;2023-04-12T11:23:18;5.28;;;2.90;;
10335;SDS011;5213;53.548;9.930;2023-04-12T11:25:52;4.05;;;2.45;;
10335;SDS011;5213;53.548;9.930;2023-04-12T11:28:18;4.68;;;2.92;;
10335;SDS011;5213;53.548;9.930;2023-04-12T11:30:54;5.45;;;2.85;;
10335;SDS011;5213;53.548;9.930;2023-04-12T11:36:16;4.88;;;2.75;;
10335;SDS011;5213;53.548;9.930;2023-04-12T11:38:42;4.22;;;2.70;;
10335;SDS011;5213;53.548;9.930;2023-04-12T11:41:10;5.93;;;2.70;;
10335;SDS011;5213;53.548;9.930;2023-04-12T11:43:36;5.45;;;3.05;;
10335;SDS011;5213;53.548;9.930;2023-04-12T11:46:02;4.93;;;2.60;;
10335;SDS011;5213;53.548;9.930;2023-04-12T11:48:28;4.38;;;2.97;;
10335;SDS011;5213;53.548;9.930;2023-04-12T11:50:55;4.65;;;2.50;;
10335;SDS011;5213;53.548;9.930;2023-04-12T11:53:25;6.60;;;2.95;;
10335;SDS011;5213;53.548;9.930;2023-04-12T11:55:53;7.25;;;2.92;;
10335;SDS011;5213;53.548;9.930;2023-04-12T11:58:24;4.45;;;2.80;;
10335;SDS011;5213;53.548;9.930;2023-04-12T12:00:51;3.47;;;2.80;;
10335;SDS011;5213;53.548;9.930;2023-04-12T12:03:17;5.18;;;3.20;;
10335;SDS011;5213;53.548;9.930;2023-04-12T12:05:43;6.95;;;3.20;;
10335;SDS011;5213;53.548;9.930;2023-04-12T12:08:10;5.40;;;3.15;;
10335;SDS011;5213;53.548;9.930;2023-04-12T12:10:37;4.30;;;3.15;;
10335;SDS011;5213;53.548;9.930;2023-04-12T12:13:08;4.85;;;2.90;;
10335;SDS011;5213;53.548;9.930;2023-04-12T12:15:34;4.13;;;2.72;;
10335;SDS011;5213;53.548;9.930;2023-04-12T12:18:00;2.72;;;2.22;;
10335;SDS011;5213;53.548;9.930;2023-04-12T12:20:26;3.63;;;2.60;;
10335;SDS011;5213;53.548;9.930;2023-04-12T12:22:53;4.68;;;3.00;;
10335;SDS011;5213;53.548;9.930;2023-04-12T12:25:19;6.82;;;3.70;;
10335;SDS011;5213;53.548;9.930;2023-04-12T12:27:45;5.22;;;2.78;;
10335;SDS011;5213;53.548;9.930;2023-04-12T12:30:18;3.15;;;2.70;;
10335;SDS011;5213;53.548;9.930;2023-04-12T12:32:44;3.22;;;2.92;;
10335;SDS011;5213;53.548;9.930;2023-04-12T12:35:13;3.75;;;3.00;;
10335;SDS011;5213;53.548;9.930;2023-04-12T12:37:52;2.80;;;2.60;;
10335;SDS011;5213;53.548;9.930;2023-04-12T12:40:29;3.58;;;3.25;;
10335;SDS011;5213;53.548;9.930;2023-04-12T12:42:58;6.90;;;3.25;;
10335;SDS011;5213;53.548;9.930;2023-04-12T12:45:25;5.35;;;3.03;;
10335;SDS011;5213;53.548;9.930;2023-04-12T12:50:18;5.40;;;3.20;;
10335;SDS011;5213;53.548;9.930;2023-04-12T12:52:45;3.17;;;2.80;;
10335;SDS011;5213;53.548;9.930;2023-04-12T12:55:12;4.07;;;3.20;;
10335;SDS011;5213;53.548;9.930;2023-04-12T12:57:38;4.20;;;3.20;;
10335;SDS011;5213;53.548;9.930;2023-04-12T13:00:05;3.25;;;2.92;;
10335;SDS011;5213;53.548;9.930;2023-04-12T13:02:31;5.50;;;3.28;;
10335;SDS011;5213;53.548;9.930;2023-04-12T13:04:57;4.80;;;3.08;;
10335;SDS011;5213;53.548;9.930;2023-04-12T13:07:25;4.65;;;3.40;;
10335;SDS011;5213;53.548;9.930;2023-04-12T13:09:51;3.72;;;3.25;;
10335;SDS011;5213;53.548;9.930;2023-04-12T13:12:17;4.57;;;3.40;;
10335;SDS011;5213;53.548;9.930;2023-04-12T13:14:45;4.47;;;3.28;;
10335;SDS011;5213;53.548;9.930;2023-04-12T13:17:12;4.40;;;3.40;;
10335;SDS011;5213;53.548;9.930;2023-04-12T13:19:38;4.97;;;3.40;;
10335;SDS011;5213;53.548;9.930;2023-04-12T13:22:04;3.92;;;3.22;;
10335;SDS011;5213;53.548;9.930;2023-04-12T13:24:31;4.72;;;3.58;;
10335;SDS011;5213;53.548;9.930;2023-04-12T13:26:57;4.50;;;3.50;;
10335;SDS011;5213;53.548;9.930;2023-04-12T13:29:23;4.45;;;2.90;;
10335;SDS011;5213;53.548;9.930;2023-04-12T13:31:49;4.82;;;3.53;;
10335;SDS011;5213;53.548;9.930;2023-04-12T13:34:16;3.83;;;2.92;;
10335;SDS011;5213;53.548;9.930;2023-04-12T13:36:42;4.40;;;3.03;;
10335;SDS011;5213;53.548;9.930;2023-04-12T13:39:08;4.78;;;3.00;;
10335;SDS011;5213;53.548;9.930;2023-04-12T13:41:34;4.03;;;3.00;;
10335;SDS011;5213;53.548;9.930;2023-04-12T13:44:00;3.30;;;2.80;;
10335;SDS011;5213;53.548;9.930;2023-04-12T13:46:26;4.00;;;2.88;;
10335;SDS011;5213;53.548;9.930;2023-04-12T13:48:52;5.20;;;3.05;;
10335;SDS011;5213;53.548;9.930;2023-04-12T13:51:18;4.63;;;2.90;;
10335;SDS011;5213;53.548;9.930;2023-04-12T13:53:44;4.63;;;2.50;;
10335;SDS011;5213;53.548;9.930;2023-04-12T13:56:10;3.60;;;2.70;;
10335;SDS011;5213;53.548;9.930;2023-04-12T13:58:36;2.72;;;2.53;;
10335;SDS011;5213;53.548;9.930;2023-04-12T14:01:04;3.97;;;2.53;;
10335;SDS011;5213;53.548;9.930;2023-04-12T14:03:30;5.07;;;2.75;;
10335;SDS011;5213;53.548;9.930;2023-04-12T14:05:56;5.03;;;2.55;;
10335;SDS011;5213;53.548;9.930;2023-04-12T14:08:22;3.03;;;2.42;;
10335;SDS011;5213;53.548;9.930;2023-04-12T14:10:48;4.72;;;3.50;;
10335;SDS011;5213;53.548;9.930;2023-04-12T14:13:14;2.60;;;2.40;;
10335;SDS011;5213;53.548;9.930;2023-04-12T14:15:40;2.95;;;2.30;;
10335;SDS011;5213;53.548;9.930;2023-04-12T14:18:06;3.85;;;2.40;;
10335;SDS011;5213;53.548;9.930;2023-04-12T14:20:32;2.60;;;2.40;;
10335;SDS011;5213;53.548;9.930;2023-04-12T14:22:58;3.42;;;2.40;;
10335;SDS011;5213;53.548;9.930;2023-04-12T14:25:25;6.43;;;2.60;;
10335;SDS011;5213;53.548;9.930;2023-04-12T14:27:51;3.28;;;2.40;;
10335;SDS011;5213;53.548;9.930;2023-04-12T14:30:17;2.53;;;2.40;;
10335;SDS011;5213;53.548;9.930;2023-04-12T14:32:43;5.15;;;2.50;;
10335;SDS011;5213;53.548;9.930;2023-04-12T14:35:09;5.03;;;2.50;;
10335;SDS011;5213;53.548;9.930;2023-04-12T14:37:35;3.08;;;2.65;;
10335;SDS011;5213;53.548;9.930;2023-04-12T14:40:01;6.35;;;2.85;;
10335;SDS011;5213;53.548;9.930;2023-04-12T14:42:30;3.83;;;2.60;;
10335;SDS011;5213;53.548;9.930;2023-04-12T14:44:56;3.55;;;2.38;;
10335;SDS011;5213;53.548;9.930;2023-04-12T14:47:22;3.45;;;2.88;;
10335;SDS011;5213;53.548;9.930;2023-04-12T14:49:48;5.00;;;2.72;;
10335;SDS011;5213;53.548;9.930;2023-04-12T14:52:15;3.05;;;2.38;;
10335;SDS011;5213;53.548;9.930;2023-04-12T14:54:41;3.42;;;2.88;;
10335;SDS011;5213;53.548;9.930;2023-04-12T14:57:07;4.28;;;2.75;;
10335;SDS011;5213;53.548;9.930;2023-04-12T14:59:33;2.90;;;2.60;;
10335;SDS011;5213;53.548;9.930;2023-04-12T15:01:59;3.63;;;2.60;;
10335;SDS011;5213;53.548;9.930;2023-04-12T15:04:25;2.83;;;2.60;;
10335;SDS011;5213;53.548;9.930;2023-04-12T15:06:51;4.20;;;2.80;;
10335;SDS011;5213;53.548;9.930;2023-04-12T15:09:17;3.15;;;2.85;;
10335;SDS011;5213;53.548;9.930;2023-04-12T15:11:47;3.22;;;2.95;;
10335;SDS011;5213;53.548;9.930;2023-04-12T15:14:14;2.95;;;2.75;;
10335;SDS011;5213;53.548;9.930;2023-04-12T15:16:42;4.32;;;2.10;;
10335;SDS011;5213;53.548;9.930;2023-04-12T15:19:10;2.38;;;2.20;;
10335;SDS011;5213;53.548;9.930;2023-04-12T15:21:36;3.92;;;2.13;;
10335;SDS011;5213;53.548;9.930;2023-04-12T15:24:02;2.45;;;2.28;;
10335;SDS011;5213;53.548;9.930;2023-04-12T15:26:28;2.35;;;2.15;;